createdAt,value
2019-02-12T00:00:16.894Z,7.80
2019-02-12T00:02:45.306Z,8.25
2019-02-12T00:05:13.791Z,7.15
2019-02-12T00:07:42.661Z,6.50
2019-02-12T00:10:11.154Z,8.10
2019-02-12T00:12:39.554Z,6.85
2019-02-12T00:15:08.087Z,7.28
2019-02-12T00:17:36.515Z,6.90
2019-02-12T00:20:06.429Z,7.30
2019-02-12T00:22:35.389Z,6.92
2019-02-12T00:25:05.747Z,6.97
2019-02-12T00:27:34.166Z,7.50
2019-02-12T00:30:03.200Z,7.70
2019-02-12T00:32:31.597Z,7.25
2019-02-12T00:35:00.015Z,7.65
2019-02-12T00:37:28.417Z,7.60
2019-02-12T00:39:56.829Z,8.58
2019-02-12T00:42:25.231Z,7.22
2019-02-12T00:44:54.206Z,9.25
2019-02-12T00:47:22.622Z,7.67
2019-02-12T00:49:51.035Z,8.50
2019-02-12T00:52:19.506Z,8.43
2019-02-12T00:54:47.971Z,7.10
2019-02-12T00:57:16.347Z,7.72
2019-02-12T00:59:45.405Z,7.90
2019-02-12T01:02:13.945Z,8.25
2019-02-12T01:04:42.388Z,7.50
2019-02-12T01:07:10.813Z,7.53
2019-02-12T01:09:39.236Z,7.15
2019-02-12T01:12:07.632Z,8.25
2019-02-12T01:14:36.161Z,8.78
2019-02-12T01:17:04.631Z,7.05
2019-02-12T01:19:33.031Z,7.45
2019-02-12T01:22:01.753Z,7.20
2019-02-12T01:24:30.173Z,7.55
2019-02-12T01:26:58.580Z,7.03
2019-02-12T01:29:27.287Z,7.37
2019-02-12T01:31:55.738Z,6.35
2019-02-12T01:34:24.249Z,10.30
2019-02-12T01:36:52.658Z,7.37
2019-02-12T01:39:21.077Z,7.20
2019-02-12T01:41:49.799Z,6.75
2019-02-12T01:44:18.255Z,7.20
2019-02-12T01:46:46.853Z,8.00
2019-02-12T01:49:15.282Z,7.25
2019-02-12T01:51:43.850Z,6.72
2019-02-12T01:54:12.297Z,9.68
2019-02-12T01:56:40.705Z,8.28
2019-02-12T01:59:09.155Z,7.05
2019-02-12T02:01:37.603Z,7.08
2019-02-12T02:04:06.087Z,6.80
2019-02-12T02:06:34.778Z,7.75
2019-02-12T02:09:05.054Z,7.37
2019-02-12T02:11:33.476Z,7.95
2019-02-12T02:14:01.874Z,6.75
2019-02-12T02:16:30.345Z,6.95
2019-02-12T02:18:59.186Z,7.03
2019-02-12T02:21:27.589Z,7.47
2019-02-12T02:23:56.005Z,8.38
2019-02-12T02:26:24.481Z,6.37
2019-02-12T02:28:53.043Z,7.78
2019-02-12T02:31:21.426Z,7.08
2019-02-12T02:33:49.837Z,7.08
2019-02-12T02:36:18.237Z,8.28
2019-02-12T02:38:49.681Z,7.90
2019-02-12T02:41:18.356Z,6.20
2019-02-12T02:43:46.798Z,6.45
2019-02-12T02:46:15.196Z,8.68
2019-02-12T02:48:43.639Z,7.45
2019-02-12T02:51:12.065Z,6.95
2019-02-12T02:53:40.482Z,7.80
2019-02-12T02:56:08.928Z,7.67
2019-02-12T02:58:37.339Z,8.78
2019-02-12T03:01:05.759Z,8.38
2019-02-12T03:03:34.177Z,6.42
2019-02-12T03:06:02.616Z,7.03
2019-02-12T03:08:31.067Z,7.87
2019-02-12T03:10:59.501Z,6.87
2019-02-12T03:13:27.892Z,7.97
2019-02-12T03:15:56.736Z,6.92
2019-02-12T03:18:25.162Z,6.95
2019-02-12T03:20:53.914Z,6.67
2019-02-12T03:23:22.434Z,6.87
2019-02-12T03:25:50.977Z,6.03
2019-02-12T03:28:19.448Z,7.25
2019-02-12T03:30:47.890Z,8.03
2019-02-12T03:33:16.376Z,6.20
2019-02-12T03:35:44.807Z,6.30
2019-02-12T03:38:13.229Z,6.70
2019-02-12T03:40:41.653Z,6.85
2019-02-12T03:43:10.087Z,6.87
2019-02-12T03:45:38.545Z,7.40
2019-02-12T03:48:06.944Z,7.30
2019-02-12T03:50:35.401Z,6.00
2019-02-12T03:53:03.829Z,7.30
2019-02-12T03:55:32.246Z,6.62
2019-02-12T03:58:00.711Z,6.25
2019-02-12T04:00:29.127Z,5.70
2019-02-12T04:03:05.468Z,6.17
2019-02-12T04:05:34.876Z,6.40
2019-02-12T04:08:03.441Z,7.20
2019-02-12T04:10:32.272Z,5.30
2019-02-12T04:13:01.282Z,6.00
2019-02-12T04:15:29.705Z,6.50
2019-02-12T04:17:58.115Z,6.47
2019-02-12T04:20:26.577Z,5.37
2019-02-12T04:22:54.970Z,6.35
2019-02-12T04:25:23.595Z,5.75
2019-02-12T04:27:52.013Z,5.90
2019-02-12T04:30:20.597Z,6.03
2019-02-12T04:32:49.330Z,5.50
2019-02-12T04:35:17.734Z,5.45
2019-02-12T04:37:46.133Z,5.20
2019-02-12T04:40:14.572Z,6.25
2019-02-12T04:42:42.984Z,5.72
2019-02-12T04:45:11.809Z,5.80
2019-02-12T04:47:40.273Z,5.55
2019-02-12T04:50:11.777Z,5.95
2019-02-12T04:52:40.243Z,5.53
2019-02-12T04:55:10.834Z,6.58
2019-02-12T04:57:39.273Z,4.92
2019-02-12T05:00:14.420Z,5.90
2019-02-12T05:02:42.882Z,6.28
2019-02-12T05:05:11.349Z,7.05
2019-02-12T05:07:39.807Z,6.20
2019-02-12T05:10:11.568Z,6.22
2019-02-12T05:12:40.308Z,6.75
2019-02-12T05:15:09.857Z,5.97
2019-02-12T05:17:38.347Z,6.03
2019-02-12T05:20:09.940Z,6.15
2019-02-12T05:22:43.563Z,5.47
2019-02-12T05:25:09.424Z,6.62
2019-02-12T05:27:37.874Z,7.05
2019-02-12T05:30:11.490Z,6.05
2019-02-12T05:32:39.966Z,6.03
2019-02-12T05:35:08.684Z,6.10
2019-02-12T05:37:37.110Z,5.05
2019-02-12T05:40:11.890Z,5.47
2019-02-12T05:42:40.397Z,4.70
2019-02-12T05:45:11.779Z,4.92
2019-02-12T05:47:40.190Z,5.28
2019-02-12T05:50:15.969Z,4.83
2019-02-12T05:52:53.821Z,4.45
2019-02-12T05:55:14.612Z,4.00
2019-02-12T05:57:43.054Z,5.17
2019-02-12T06:00:18.131Z,4.25
2019-02-12T06:02:46.527Z,4.33
2019-02-12T06:05:28.781Z,4.40
2019-02-12T06:07:57.219Z,3.90
2019-02-12T06:10:25.704Z,3.45
2019-02-12T06:12:54.108Z,4.22
2019-02-12T06:15:22.535Z,4.17
2019-02-12T06:17:51.117Z,5.45
2019-02-12T06:20:19.517Z,5.33
2019-02-12T06:22:47.987Z,4.10
2019-02-12T06:25:16.446Z,4.45
2019-02-12T06:27:44.838Z,4.47
2019-02-12T06:30:13.301Z,4.83
2019-02-12T06:32:41.808Z,3.80
2019-02-12T06:35:10.633Z,3.95
2019-02-12T06:37:39.125Z,3.00
2019-02-12T06:40:11.466Z,3.42
2019-02-12T06:42:39.938Z,3.47
2019-02-12T06:45:11.083Z,3.80
2019-02-12T06:47:39.480Z,3.47
2019-02-12T06:50:12.947Z,3.30
2019-02-12T06:52:41.751Z,2.92
2019-02-12T06:55:11.202Z,3.90
2019-02-12T06:57:39.676Z,3.12
2019-02-12T07:00:13.021Z,4.03
2019-02-12T07:03:10.250Z,3.35
2019-02-12T07:05:44.684Z,3.70
2019-02-12T07:08:28.253Z,5.55
2019-02-12T07:11:08.289Z,3.98
2019-02-12T07:13:39.870Z,3.47
2019-02-12T07:16:13.948Z,3.75
2019-02-12T07:19:05.166Z,2.92
2019-02-12T07:21:45.494Z,3.17
2019-02-12T07:24:28.777Z,2.92
2019-02-12T07:27:09.148Z,3.22
2019-02-12T07:29:43.503Z,3.10
2019-02-12T07:32:47.951Z,3.70
2019-02-12T07:35:39.072Z,4.25
2019-02-12T07:38:39.410Z,3.80
2019-02-12T07:41:20.626Z,4.12
2019-02-12T07:44:07.364Z,4.62
2019-02-12T07:47:10.679Z,4.37
2019-02-12T07:50:00.352Z,4.40
2019-02-12T07:52:34.412Z,4.75
2019-02-12T07:55:28.669Z,3.75
2019-02-12T07:58:05.848Z,4.12
2019-02-12T08:00:53.921Z,3.92
2019-02-12T08:03:37.408Z,6.90
2019-02-12T08:06:20.223Z,4.20
2019-02-12T08:09:23.713Z,5.05
2019-02-12T08:11:57.910Z,4.37
2019-02-12T08:14:32.246Z,4.75
2019-02-12T08:17:15.578Z,5.60
2019-02-12T08:20:04.567Z,5.05
2019-02-12T08:22:55.643Z,4.45
2019-02-12T08:25:30.045Z,4.78
2019-02-12T08:28:20.911Z,4.47
2019-02-12T08:31:12.897Z,5.75
2019-02-12T08:33:47.226Z,5.20
2019-02-12T08:36:18.729Z,4.92
2019-02-12T08:39:08.274Z,5.30
2019-02-12T08:41:42.693Z,4.80
2019-02-12T08:44:23.214Z,4.87
2019-02-12T08:47:14.790Z,4.83
2019-02-12T08:49:48.783Z,5.00
2019-02-12T08:52:28.723Z,4.80
2019-02-12T08:55:15.013Z,4.33
2019-02-12T08:57:55.827Z,4.95
2019-02-12T09:00:32.853Z,5.78
2019-02-12T09:03:10.196Z,5.65
2019-02-12T09:05:47.261Z,5.17
2019-02-12T09:08:24.506Z,5.72
2019-02-12T09:11:24.079Z,4.87
2019-02-12T09:13:58.534Z,5.22
2019-02-12T09:16:49.549Z,5.45
2019-02-12T09:19:24.029Z,5.03
2019-02-12T09:22:24.399Z,4.70
2019-02-12T09:25:02.084Z,5.45
2019-02-12T09:27:51.805Z,4.50
2019-02-12T09:30:41.818Z,5.17
2019-02-12T09:33:16.299Z,5.15
2019-02-12T09:35:50.402Z,4.15
2019-02-12T09:38:38.270Z,4.53
2019-02-12T09:41:16.063Z,3.98
2019-02-12T09:43:47.546Z,4.70
2019-02-12T09:46:36.894Z,5.03
2019-02-12T09:49:39.066Z,3.58
2019-02-12T09:52:27.066Z,5.50
2019-02-12T09:55:08.970Z,3.55
2019-02-12T09:57:48.574Z,3.70
2019-02-12T10:00:29.080Z,3.37
2019-02-12T10:03:31.174Z,3.22
2019-02-12T10:06:08.888Z,3.47
2019-02-12T10:08:52.399Z,4.00
2019-02-12T10:11:32.651Z,4.50
2019-02-12T10:14:06.717Z,5.03
2019-02-12T10:16:55.894Z,3.75
2019-02-12T10:19:30.364Z,4.45
2019-02-12T10:22:04.613Z,3.75
2019-02-12T10:24:51.122Z,5.03
2019-02-12T10:27:43.458Z,5.30
2019-02-12T10:30:31.676Z,4.95
2019-02-12T10:33:00.106Z,5.03
2019-02-12T10:35:28.681Z,4.83
2019-02-12T10:37:57.143Z,4.87
2019-02-12T10:40:27.134Z,4.75
2019-02-12T10:42:55.849Z,5.08
2019-02-12T10:45:25.798Z,5.05
2019-02-12T10:47:54.387Z,5.42
2019-02-12T10:50:22.857Z,5.95
2019-02-12T10:52:51.326Z,4.37
2019-02-12T10:55:19.994Z,4.70
2019-02-12T10:57:48.417Z,4.05
2019-02-12T11:00:17.158Z,3.92
2019-02-12T11:02:45.565Z,5.20
2019-02-12T11:05:14.041Z,4.70
2019-02-12T11:07:42.444Z,4.65
2019-02-12T11:10:10.981Z,4.75
2019-02-12T11:12:39.385Z,4.30
2019-02-12T11:15:09.566Z,4.05
2019-02-12T11:17:38.021Z,4.95
2019-02-12T11:20:10.850Z,3.47
2019-02-12T11:22:39.380Z,3.55
2019-02-12T11:25:10.081Z,3.37
2019-02-12T11:27:38.509Z,3.10
2019-02-12T11:30:10.164Z,3.72
2019-02-12T11:32:38.581Z,2.75
2019-02-12T11:35:10.635Z,3.75
2019-02-12T11:37:39.113Z,3.83
2019-02-12T11:40:13.489Z,3.37
2019-02-12T11:42:42.078Z,3.65
2019-02-12T11:45:13.693Z,3.92
2019-02-12T11:47:42.077Z,2.83
2019-02-12T11:50:12.715Z,3.40
2019-02-12T11:52:41.118Z,2.70
2019-02-12T11:55:14.895Z,2.20
2019-02-12T11:57:43.689Z,3.00
2019-02-12T12:00:15.830Z,2.33
2019-02-12T12:02:44.300Z,2.20
2019-02-12T12:05:12.892Z,2.47
2019-02-12T12:07:41.351Z,2.22
2019-02-12T12:10:10.903Z,1.87
2019-02-12T12:12:39.297Z,2.33
2019-02-12T12:15:10.277Z,1.67
2019-02-12T12:17:38.937Z,2.02
2019-02-12T12:20:12.615Z,1.70
2019-02-12T12:22:41.076Z,2.40
2019-02-12T12:25:10.936Z,2.35
2019-02-12T12:27:39.529Z,1.62
2019-02-12T12:30:13.102Z,2.22
2019-02-12T12:32:41.605Z,1.95
2019-02-12T12:35:11.228Z,2.00
2019-02-12T12:37:39.677Z,1.72
2019-02-12T12:40:12.510Z,3.35
2019-02-12T12:42:41.357Z,2.98
2019-02-12T12:45:13.943Z,2.80
2019-02-12T12:47:42.350Z,2.40
2019-02-12T12:50:12.097Z,2.40
2019-02-12T12:52:40.510Z,2.55
2019-02-12T12:55:09.968Z,3.02
2019-02-12T12:57:41.853Z,3.35
2019-02-12T13:00:14.207Z,4.95
2019-02-12T13:02:42.617Z,3.60
2019-02-12T13:05:11.254Z,2.95
2019-02-12T13:07:39.937Z,2.65
2019-02-12T13:10:11.347Z,3.00
2019-02-12T13:12:39.815Z,2.95
2019-02-12T13:15:13.454Z,2.60
2019-02-12T13:17:41.862Z,3.22
2019-02-12T13:20:17.791Z,2.55
2019-02-12T13:22:46.197Z,2.37
2019-02-12T13:25:14.850Z,2.52
2019-02-12T13:27:43.277Z,3.08
2019-02-12T13:30:16.942Z,2.67
2019-02-12T13:32:45.348Z,2.60
2019-02-12T13:35:14.008Z,3.00
2019-02-12T13:37:42.465Z,3.00
2019-02-12T13:40:12.371Z,2.67
2019-02-12T13:42:40.885Z,3.20
2019-02-12T13:45:12.234Z,2.40
2019-02-12T13:47:40.637Z,3.15
2019-02-12T13:50:10.391Z,2.40
2019-02-12T13:52:38.785Z,3.00
2019-02-12T13:55:15.452Z,2.35
2019-02-12T13:57:38.957Z,2.40
2019-02-12T14:00:13.207Z,2.60
2019-02-12T14:02:41.622Z,2.90
2019-02-12T14:05:15.861Z,2.60
2019-02-12T14:07:44.325Z,2.52
2019-02-12T14:10:12.854Z,3.33
2019-02-12T14:12:41.258Z,2.17
2019-02-12T14:15:12.279Z,4.35
2019-02-12T14:17:41.037Z,2.58
2019-02-12T14:20:15.071Z,2.25
2019-02-12T14:22:43.511Z,3.00
2019-02-12T14:25:15.865Z,3.45
2019-02-12T14:27:44.345Z,2.20
2019-02-12T14:30:14.594Z,1.57
2019-02-12T14:32:43.857Z,2.80
2019-02-12T14:35:13.104Z,2.10
2019-02-12T14:37:41.606Z,2.62
2019-02-12T14:40:14.066Z,2.60
2019-02-12T14:42:42.477Z,2.80
2019-02-12T14:45:18.473Z,2.30
2019-02-12T14:47:46.891Z,3.20
2019-02-12T14:50:17.121Z,2.30
2019-02-12T14:52:45.601Z,2.20
2019-02-12T14:55:14.035Z,2.65
2019-02-12T14:57:42.465Z,2.90
2019-02-12T15:00:14.139Z,2.22
2019-02-12T15:02:42.678Z,3.02
2019-02-12T15:05:11.070Z,2.47
2019-02-12T15:07:39.507Z,2.20
2019-02-12T15:10:12.633Z,2.25
2019-02-12T15:12:41.353Z,2.98
2019-02-12T15:15:10.817Z,2.30
2019-02-12T15:17:39.294Z,1.90
2019-02-12T15:20:12.436Z,2.10
2019-02-12T15:22:40.844Z,2.70
2019-02-12T15:25:11.652Z,3.60
2019-02-12T15:27:40.133Z,2.40
2019-02-12T15:30:11.976Z,2.70
2019-02-12T15:32:40.457Z,2.35
2019-02-12T15:35:10.406Z,2.87
2019-02-12T15:37:39.089Z,2.80
2019-02-12T15:40:13.668Z,2.85
2019-02-12T15:42:42.085Z,2.45
2019-02-12T15:45:13.162Z,2.40
2019-02-12T15:47:41.693Z,3.20
2019-02-12T15:50:11.434Z,4.20
2019-02-12T15:52:39.904Z,3.00
2019-02-12T15:55:13.075Z,3.72
2019-02-12T15:57:43.685Z,2.50
2019-02-12T16:00:15.566Z,2.92
2019-02-12T16:02:44.218Z,3.15
2019-02-12T16:05:13.360Z,2.33
2019-02-12T16:07:42.620Z,3.58
2019-02-12T16:10:19.364Z,3.75
2019-02-12T16:12:48.928Z,3.20
2019-02-12T16:15:19.883Z,2.70
2019-02-12T16:17:49.089Z,3.55
2019-02-12T16:20:17.497Z,2.70
2019-02-12T16:22:45.896Z,2.55
2019-02-12T16:25:15.545Z,2.90
2019-02-12T16:27:44.284Z,3.12
2019-02-12T16:30:15.571Z,3.33
2019-02-12T16:32:43.975Z,3.35
2019-02-12T16:35:14.111Z,3.92
2019-02-12T16:37:42.551Z,3.17
2019-02-12T16:40:13.624Z,2.90
2019-02-12T16:42:42.039Z,3.87
2019-02-12T16:45:13.594Z,3.90
2019-02-12T16:47:42.358Z,3.80
2019-02-12T16:50:10.842Z,3.35
2019-02-12T16:52:39.281Z,4.05
2019-02-12T16:55:09.746Z,3.52
2019-02-12T16:57:38.155Z,3.20
2019-02-12T17:00:15.264Z,3.10
2019-02-12T17:02:43.741Z,4.20
2019-02-12T17:05:13.809Z,5.10
2019-02-12T17:07:43.885Z,3.67
2019-02-12T17:10:12.560Z,4.90
2019-02-12T17:12:40.973Z,4.40
2019-02-12T17:15:11.264Z,4.40
2019-02-12T17:17:39.993Z,4.58
2019-02-12T17:20:14.336Z,7.25
2019-02-12T17:22:42.746Z,4.33
2019-02-12T17:25:11.233Z,3.92
2019-02-12T17:27:39.644Z,4.35
2019-02-12T17:30:11.648Z,4.35
2019-02-12T17:32:40.092Z,5.05
2019-02-12T17:35:09.393Z,6.55
2019-02-12T17:37:37.934Z,5.92
2019-02-12T17:40:11.653Z,3.27
2019-02-12T17:42:40.097Z,4.20
2019-02-12T17:45:18.413Z,4.70
2019-02-12T17:47:46.853Z,4.22
2019-02-12T17:50:15.965Z,4.55
2019-02-12T17:52:44.414Z,4.08
2019-02-12T17:55:12.933Z,4.50
2019-02-12T17:57:41.472Z,4.35
2019-02-12T18:00:23.982Z,3.85
2019-02-12T18:02:52.406Z,3.37
2019-02-12T18:05:20.818Z,3.35
2019-02-12T18:07:49.392Z,3.92
2019-02-12T18:10:17.799Z,4.85
2019-02-12T18:12:46.237Z,4.10
2019-02-12T18:15:15.164Z,5.05
2019-02-12T18:17:43.561Z,4.90
2019-02-12T18:20:17.309Z,4.67
2019-02-12T18:22:45.720Z,5.50
2019-02-12T18:25:14.125Z,6.83
2019-02-12T18:27:42.605Z,6.95
2019-02-12T18:30:17.866Z,6.00
2019-02-12T18:32:46.317Z,8.28
2019-02-12T18:35:14.813Z,7.87
2019-02-12T18:37:43.308Z,12.80
2019-02-12T18:40:14.150Z,11.40
2019-02-12T18:42:42.568Z,4.97
2019-02-12T18:45:16.375Z,6.20
2019-02-12T18:47:44.801Z,5.67
2019-02-12T18:50:13.319Z,5.45
2019-02-12T18:52:41.863Z,5.87
2019-02-12T18:55:12.578Z,5.55
2019-02-12T18:57:41.092Z,4.85
2019-02-12T19:00:12.274Z,5.85
2019-02-12T19:02:40.686Z,5.60
2019-02-12T19:05:10.567Z,5.00
2019-02-12T19:07:39.055Z,5.55
2019-02-12T19:10:10.841Z,5.83
2019-02-12T19:12:39.364Z,6.15
2019-02-12T19:15:13.202Z,5.00
2019-02-12T19:17:42.845Z,5.20
2019-02-12T19:20:13.168Z,5.45
2019-02-12T19:22:41.629Z,5.55
2019-02-12T19:25:10.907Z,5.40
2019-02-12T19:27:39.393Z,5.58
2019-02-12T19:30:16.420Z,5.87
2019-02-12T19:32:45.170Z,6.90
2019-02-12T19:35:13.600Z,6.80
2019-02-12T19:37:42.732Z,7.60
2019-02-12T19:40:13.350Z,7.62
2019-02-12T19:42:41.817Z,7.60
2019-02-12T19:45:16.380Z,7.42
2019-02-12T19:47:45.174Z,6.20
2019-02-12T19:50:13.771Z,6.50
2019-02-12T19:52:42.629Z,6.30
2019-02-12T19:55:11.514Z,5.97
2019-02-12T19:57:40.002Z,5.75
2019-02-12T20:00:15.354Z,5.80
2019-02-12T20:02:43.822Z,5.95
2019-02-12T20:05:13.342Z,4.53
2019-02-12T20:07:42.006Z,5.17
2019-02-12T20:10:11.950Z,5.45
2019-02-12T20:12:40.631Z,5.50
2019-02-12T20:15:14.200Z,4.83
2019-02-12T20:17:42.756Z,5.97
2019-02-12T20:20:12.614Z,7.80
2019-02-12T20:22:41.050Z,6.42
2019-02-12T20:25:10.810Z,8.00
2019-02-12T20:27:39.298Z,6.25
2019-02-12T20:30:13.649Z,6.15
2019-02-12T20:32:42.689Z,7.12
2019-02-12T20:35:15.423Z,7.37
2019-02-12T20:37:43.929Z,7.85
2019-02-12T20:40:13.962Z,7.60
2019-02-12T20:42:42.446Z,7.42
2019-02-12T20:45:15.711Z,6.90
2019-02-12T20:47:44.539Z,8.35
2019-02-12T20:50:15.430Z,7.22
2019-02-12T20:52:43.884Z,6.72
2019-02-12T20:55:12.717Z,7.78
2019-02-12T20:57:41.294Z,7.83
2019-02-12T21:00:18.559Z,8.55
2019-02-12T21:02:48.049Z,6.72
2019-02-12T21:05:16.837Z,7.15
2019-02-12T21:07:45.280Z,7.70
2019-02-12T21:10:18.134Z,7.35
2019-02-12T21:12:46.550Z,7.20
2019-02-12T21:15:17.526Z,5.90
2019-02-12T21:17:45.938Z,6.47
2019-02-12T21:20:15.572Z,8.05
2019-02-12T21:22:45.209Z,5.70
2019-02-12T21:25:15.502Z,6.03
2019-02-12T21:27:44.385Z,5.30
2019-02-12T21:30:16.279Z,6.67
2019-02-12T21:32:44.799Z,6.55
2019-02-12T21:35:14.446Z,7.83
2019-02-12T21:37:43.174Z,6.92
2019-02-12T21:40:14.541Z,6.75
2019-02-12T21:42:42.962Z,6.40
2019-02-12T21:45:12.798Z,6.30
2019-02-12T21:47:41.705Z,5.97
2019-02-12T21:50:11.643Z,6.65
2019-02-12T21:52:42.999Z,6.20
2019-02-12T21:55:13.572Z,7.80
2019-02-12T21:57:42.098Z,6.95
2019-02-12T22:00:23.409Z,5.85
2019-02-12T22:02:52.339Z,6.75
2019-02-12T22:05:20.767Z,7.33
2019-02-12T22:07:49.362Z,7.25
2019-02-12T22:10:25.834Z,5.87
2019-02-12T22:12:54.327Z,6.15
2019-02-12T22:15:22.789Z,5.72
2019-02-12T22:17:51.337Z,6.80
2019-02-12T22:20:22.446Z,6.25
2019-02-12T22:22:50.896Z,6.40
2019-02-12T22:25:19.593Z,6.40
2019-02-12T22:27:48.138Z,6.12
2019-02-12T22:30:24.456Z,6.60
2019-02-12T22:32:52.885Z,7.20
2019-02-12T22:35:21.306Z,6.40
2019-02-12T22:37:49.937Z,7.00
2019-02-12T22:40:18.882Z,7.17
2019-02-12T22:42:47.363Z,6.12
2019-02-12T22:45:21.188Z,7.67
2019-02-12T22:47:52.855Z,7.42
2019-02-12T22:50:21.359Z,8.25
2019-02-12T22:52:50.119Z,8.85
2019-02-12T22:55:18.591Z,9.80
2019-02-12T22:57:49.576Z,7.15
2019-02-12T23:00:39.832Z,8.78
2019-02-12T23:03:08.986Z,8.90
2019-02-12T23:05:37.767Z,8.28
2019-02-12T23:08:06.232Z,8.30
2019-02-12T23:10:34.881Z,8.23
2019-02-12T23:13:03.603Z,8.83
2019-02-12T23:15:32.047Z,7.72
2019-02-12T23:18:00.445Z,7.83
2019-02-12T23:20:28.890Z,8.33
2019-02-12T23:22:57.292Z,7.90
2019-02-12T23:25:25.718Z,8.25
2019-02-12T23:27:57.524Z,7.80
2019-02-12T23:30:24.379Z,8.13
2019-02-12T23:32:53.339Z,6.90
2019-02-12T23:35:21.756Z,7.33
2019-02-12T23:37:50.199Z,7.12
2019-02-12T23:40:18.614Z,6.95
2019-02-12T23:42:47.017Z,8.33
2019-02-12T23:45:15.437Z,9.38
2019-02-12T23:47:43.918Z,7.65
2019-02-12T23:50:12.502Z,8.10
2019-02-12T23:52:40.937Z,7.62
2019-02-12T23:55:09.498Z,6.60
2019-02-12T23:57:37.914Z,7.95
